createdAt,value
2023-04-05T00:02:07.187Z,-0.30
2023-04-05T00:04:52.181Z,-0.40
2023-04-05T00:07:32.939Z,-0.40
2023-04-05T00:10:06.619Z,-0.40
2023-04-05T00:12:43.515Z,-0.50
2023-04-05T00:15:22.821Z,-0.40
2023-04-05T00:18:02.152Z,-0.50
2023-04-05T00:20:48.563Z,-0.50
2023-04-05T00:23:24.260Z,-0.50
2023-04-05T00:26:02.581Z,-0.60
2023-04-05T00:28:38.812Z,-0.60
2023-04-05T00:31:20.871Z,-0.60
2023-04-05T00:33:57.004Z,-0.60
2023-04-05T00:36:35.716Z,-0.50
2023-04-05T00:39:15.270Z,-0.60
2023-04-05T00:41:52.867Z,-0.60
2023-04-05T00:44:31.533Z,-0.70
2023-04-05T00:47:15.578Z,-0.70
2023-04-05T00:50:05.251Z,-0.80
2023-04-05T00:52:42.765Z,-0.80
2023-04-05T00:55:20.876Z,-0.80
2023-04-05T00:57:57.657Z,-0.80
2023-04-05T01:00:34.953Z,-0.80
2023-04-05T01:03:14.183Z,-0.90
2023-04-05T01:05:55.293Z,-0.90
2023-04-05T01:08:40.168Z,-0.90
2023-04-05T01:11:23.961Z,-0.80
2023-04-05T01:14:05.746Z,-0.90
2023-04-05T01:16:41.404Z,-0.90
2023-04-05T01:19:19.828Z,-0.90
2023-04-05T01:22:15.461Z,-0.90
2023-04-05T01:25:12.399Z,-0.80
2023-04-05T01:28:00.951Z,-0.90
2023-04-05T01:30:43.432Z,-0.90
2023-04-05T01:33:30.661Z,-0.90
2023-04-05T01:36:07.394Z,-1.00
2023-04-05T01:38:48.681Z,-1.00
2023-04-05T01:41:26.795Z,-1.00
2023-04-05T01:44:11.051Z,-1.00
2023-04-05T01:46:50.913Z,-1.00
2023-04-05T01:49:36.648Z,-1.00
2023-04-05T01:52:10.645Z,-1.00
2023-04-05T01:54:48.764Z,-1.10
2023-04-05T01:57:27.106Z,-1.10
2023-04-05T02:00:08.088Z,-1.10
2023-04-05T02:02:49.862Z,-1.10
2023-04-05T02:05:27.302Z,-1.10
2023-04-05T02:08:04.428Z,-1.20
2023-04-05T02:10:44.474Z,-1.20
2023-04-05T02:13:26.737Z,-1.20
2023-04-05T02:16:03.278Z,-1.30
2023-04-05T02:18:39.623Z,-1.30
2023-04-05T02:21:18.868Z,-1.30
2023-04-05T02:24:00.906Z,-1.40
2023-04-05T02:26:39.584Z,-1.40
2023-04-05T02:29:17.078Z,-1.40
2023-04-05T02:32:00.214Z,-1.40
2023-04-05T02:34:43.182Z,-1.40
2023-04-05T02:37:17.843Z,-1.40
2023-04-05T02:39:53.618Z,-1.40
2023-04-05T02:42:29.883Z,-1.50
2023-04-05T02:45:05.245Z,-1.50
2023-04-05T02:47:44.437Z,-1.50
2023-04-05T02:50:21.917Z,-1.50
2023-04-05T02:52:58.498Z,-1.50
2023-04-05T02:55:35.136Z,-1.60
2023-04-05T02:58:15.112Z,-1.60
2023-04-05T03:00:57.960Z,-1.60
2023-04-05T03:03:44.109Z,-1.70
2023-04-05T03:06:29.462Z,-1.60
2023-04-05T03:09:09.272Z,-1.70
2023-04-05T03:11:47.910Z,-1.70
2023-04-05T03:14:24.564Z,-1.70
2023-04-05T03:17:03.974Z,-1.70
2023-04-05T03:19:52.698Z,-1.70
2023-04-05T03:22:42.239Z,-1.70
2023-04-05T03:28:10.212Z,-1.80
2023-04-05T03:30:55.070Z,-1.80
2023-04-05T03:33:35.815Z,-1.80
2023-04-05T03:36:17.019Z,-1.70
2023-04-05T03:38:57.604Z,-1.70
2023-04-05T03:41:41.772Z,-1.70
2023-04-05T03:44:18.531Z,-1.70
2023-04-05T03:46:59.897Z,-1.80
2023-04-05T03:49:35.635Z,-1.80
2023-04-05T03:52:14.291Z,-1.80
2023-04-05T03:55:00.595Z,-1.80
2023-04-05T03:57:44.663Z,-1.90
2023-04-05T04:00:32.249Z,-1.90
2023-04-05T04:03:22.187Z,-1.90
2023-04-05T04:06:04.798Z,-1.90
2023-04-05T04:08:41.384Z,-1.90
2023-04-05T04:11:18.390Z,-1.90
2023-04-05T04:14:01.649Z,-2.00
2023-04-05T04:16:50.182Z,-2.00
2023-04-05T04:19:36.112Z,-2.00
2023-04-05T04:22:21.336Z,-1.90
2023-04-05T04:24:57.457Z,-1.90
2023-04-05T04:28:07.764Z,-1.90
2023-04-05T04:31:18.892Z,-1.80
2023-04-05T04:34:07.194Z,-1.70
2023-04-05T04:37:02.938Z,-1.70
2023-04-05T04:40:05.232Z,-1.60
2023-04-05T04:43:00.308Z,-1.50
2023-04-05T04:46:05.247Z,-1.40
2023-04-05T04:48:51.388Z,-1.30
2023-04-05T04:51:52.989Z,-1.20
2023-04-05T04:54:31.244Z,-1.10
2023-04-05T04:57:09.601Z,-1.00
2023-04-05T04:59:45.125Z,-0.90
2023-04-05T05:02:29.810Z,-0.70
2023-04-05T05:05:10.958Z,-0.60
2023-04-05T05:07:45.997Z,-0.50
2023-04-05T05:10:26.235Z,-0.30
2023-04-05T05:13:03.406Z,-0.20
2023-04-05T05:15:39.621Z,0.00
2023-04-05T05:18:15.361Z,0.20
2023-04-05T05:20:55.815Z,0.30
2023-04-05T05:23:38.249Z,0.40
2023-04-05T05:26:19.109Z,0.70
2023-04-05T05:29:02.751Z,0.80
2023-04-05T05:31:45.073Z,1.00
2023-04-05T05:34:27.584Z,1.00
2023-04-05T05:37:06.419Z,1.00
2023-04-05T05:39:45.142Z,1.10
2023-04-05T05:42:22.078Z,1.20
2023-04-05T05:45:01.478Z,1.20
2023-04-05T05:47:40.987Z,1.40
2023-04-05T05:50:27.605Z,1.40
2023-04-05T05:53:15.255Z,1.40
2023-04-05T05:55:58.411Z,1.50
2023-04-05T05:58:36.978Z,1.50
2023-04-05T06:01:14.052Z,1.50
2023-04-05T06:03:53.802Z,1.40
2023-04-05T06:06:42.268Z,1.40
2023-04-05T06:09:25.886Z,1.50
2023-04-05T06:12:03.946Z,1.50
2023-04-05T06:14:41.635Z,1.60
2023-04-05T06:17:20.495Z,1.70
2023-04-05T06:20:01.759Z,1.70
2023-04-05T06:22:45.783Z,1.70
2023-04-05T06:25:24.828Z,1.80
2023-04-05T06:28:08.828Z,1.90
2023-04-05T06:30:48.009Z,1.90
2023-04-05T06:33:35.368Z,2.00
2023-04-05T06:36:13.709Z,2.00
2023-04-05T06:39:00.476Z,2.10
2023-04-05T06:41:40.021Z,2.20
2023-04-05T06:44:22.720Z,2.40
2023-04-05T06:47:00.808Z,2.40
2023-04-05T06:49:37.137Z,2.50
2023-04-05T06:52:11.821Z,2.60
2023-04-05T06:55:10.603Z,2.60
2023-04-05T06:57:53.221Z,2.70
2023-04-05T07:00:32.651Z,2.70
2023-04-05T07:03:14.181Z,2.70
2023-04-05T07:06:08.950Z,2.70
2023-04-05T07:08:50.159Z,2.70
2023-04-05T07:11:28.894Z,2.70
2023-04-05T07:14:08.863Z,2.70
2023-04-05T07:16:48.654Z,2.60
2023-04-05T07:19:26.916Z,2.70
2023-04-05T07:22:01.822Z,2.80
2023-04-05T07:24:46.933Z,2.90
2023-04-05T07:27:30.143Z,3.00
2023-04-05T07:30:10.072Z,3.10
2023-04-05T07:32:57.744Z,3.20
2023-04-05T07:35:35.875Z,3.20
2023-04-05T07:38:14.591Z,3.30
2023-04-05T07:41:05.461Z,3.30
2023-04-05T07:43:56.859Z,3.40
2023-04-05T07:46:36.857Z,3.40
2023-04-05T07:49:14.848Z,3.40
2023-04-05T07:51:56.744Z,3.40
2023-04-05T07:54:47.072Z,3.40
2023-04-05T07:57:30.702Z,3.50
2023-04-05T08:00:17.172Z,3.40
2023-04-05T08:03:01.794Z,3.30
2023-04-05T08:05:46.324Z,3.30
2023-04-05T08:08:28.189Z,3.40
2023-04-05T08:11:16.253Z,3.50
2023-04-05T08:13:55.988Z,3.40
2023-04-05T08:16:33.008Z,3.30
2023-04-05T08:19:23.062Z,3.20
2023-04-05T08:22:04.533Z,3.10
2023-04-05T08:24:45.167Z,3.10
2023-04-05T08:27:26.833Z,3.10
2023-04-05T08:30:18.138Z,3.10
2023-04-05T08:33:07.113Z,3.00
2023-04-05T08:35:45.976Z,3.10
2023-04-05T08:38:28.835Z,3.10
2023-04-05T08:41:28.413Z,3.10
2023-04-05T08:44:13.215Z,3.20
2023-04-05T08:46:51.974Z,3.30
2023-04-05T08:49:34.354Z,3.40
2023-04-05T08:52:10.992Z,3.40
2023-04-05T08:54:51.020Z,3.40
2023-04-05T08:57:44.766Z,3.40
2023-04-05T09:00:26.266Z,3.40
2023-04-05T09:03:07.195Z,3.40
2023-04-05T09:05:53.906Z,3.40
2023-04-05T09:08:32.201Z,3.40
2023-04-05T09:11:13.943Z,3.50
2023-04-05T09:13:49.779Z,3.70
2023-04-05T09:16:43.035Z,3.80
2023-04-05T09:19:31.755Z,3.90
2023-04-05T09:22:10.330Z,4.10
2023-04-05T09:24:52.173Z,4.30
2023-04-05T09:27:36.040Z,4.40
2023-04-05T09:30:44.414Z,4.40
2023-04-05T09:33:33.392Z,4.40
2023-04-05T09:36:11.431Z,4.50
2023-04-05T09:38:53.344Z,4.40
2023-04-05T09:41:45.223Z,4.30
2023-04-05T09:44:25.977Z,4.20
2023-04-05T09:47:23.145Z,4.20
2023-04-05T09:50:28.217Z,4.10
2023-04-05T09:53:23.688Z,3.90
2023-04-05T09:56:14.394Z,3.90
2023-04-05T09:59:06.364Z,4.00
2023-04-05T10:01:42.781Z,4.10
2023-04-05T10:04:25.101Z,4.10
2023-04-05T10:06:58.777Z,4.10
2023-04-05T10:09:36.636Z,4.00
2023-04-05T10:12:18.052Z,3.90
2023-04-05T10:15:00.404Z,3.90
2023-04-05T10:17:46.059Z,3.80
2023-04-05T10:20:27.393Z,3.70
2023-04-05T10:23:20.111Z,3.70
2023-04-05T10:26:01.820Z,3.70
2023-04-05T10:28:43.018Z,3.60
2023-04-05T10:31:38.097Z,3.70
2023-04-05T10:34:16.270Z,3.70
2023-04-05T10:36:54.649Z,3.80
2023-04-05T10:39:36.218Z,3.90
2023-04-05T10:42:19.988Z,4.00
2023-04-05T10:45:01.292Z,4.00
2023-04-05T10:47:44.406Z,4.10
2023-04-05T10:50:26.088Z,4.10
2023-04-05T10:53:02.665Z,4.20
2023-04-05T10:55:39.878Z,4.30
2023-04-05T10:58:20.892Z,4.40
2023-04-05T11:00:59.711Z,4.50
2023-04-05T11:03:53.108Z,4.50
2023-04-05T11:06:33.774Z,4.50
2023-04-05T11:09:22.479Z,4.50
2023-04-05T11:12:08.996Z,4.40
2023-04-05T11:14:46.571Z,4.40
2023-04-05T11:17:34.059Z,4.40
2023-04-05T11:20:11.240Z,4.30
2023-04-05T11:22:47.659Z,4.20
2023-04-05T11:25:28.632Z,4.20
2023-04-05T11:28:09.962Z,4.30
2023-04-05T11:30:58.675Z,4.40
2023-04-05T11:33:56.270Z,4.50
2023-04-05T11:36:47.107Z,4.40
2023-04-05T11:39:33.959Z,4.40
2023-04-05T11:42:22.466Z,4.50
2023-04-05T11:44:58.768Z,4.60
2023-04-05T11:47:38.929Z,4.70
2023-04-05T11:50:16.558Z,4.70
2023-04-05T11:53:11.180Z,4.80
2023-04-05T11:56:03.793Z,4.90
2023-04-05T11:58:39.535Z,5.00
2023-04-05T12:01:22.193Z,5.00
2023-04-05T12:03:59.285Z,5.10
2023-04-05T12:06:36.858Z,5.00
2023-04-05T12:09:23.846Z,5.10
2023-04-05T12:12:05.362Z,5.10
2023-04-05T12:14:44.860Z,5.20
2023-04-05T12:17:23.103Z,5.30
2023-04-05T12:20:08.697Z,5.30
2023-04-05T12:22:49.482Z,5.20
2023-04-05T12:25:34.137Z,5.00
2023-04-05T12:28:46.011Z,5.00
2023-04-05T12:31:23.018Z,5.10
2023-04-05T12:34:07.698Z,5.00
2023-04-05T12:36:53.692Z,5.10
2023-04-05T12:39:37.545Z,5.10
2023-04-05T12:42:26.691Z,5.10
2023-04-05T12:45:12.813Z,5.10
2023-04-05T12:48:01.813Z,5.10
2023-04-05T12:50:40.700Z,5.00
2023-04-05T12:53:22.694Z,5.00
2023-04-05T12:56:03.330Z,5.00
2023-04-05T12:58:43.889Z,5.00
2023-04-05T13:01:23.448Z,5.00
2023-04-05T13:04:12.648Z,5.00
2023-04-05T13:07:14.824Z,5.00
2023-04-05T13:09:48.096Z,4.80
2023-04-05T13:12:27.726Z,4.80
2023-04-05T13:15:06.592Z,4.70
2023-04-05T13:17:52.742Z,4.70
2023-04-05T13:20:28.373Z,4.50
2023-04-05T13:23:11.885Z,4.40
2023-04-05T13:25:47.236Z,4.40
2023-04-05T13:28:29.813Z,4.40
2023-04-05T13:31:19.049Z,4.30
2023-04-05T13:34:01.674Z,4.30
2023-04-05T13:36:53.400Z,4.30
2023-04-05T13:39:33.175Z,4.30
2023-04-05T13:42:11.950Z,4.40
2023-04-05T13:44:50.262Z,4.40
2023-04-05T13:47:30.414Z,4.40
2023-04-05T13:50:15.970Z,4.40
2023-04-05T13:52:59.919Z,4.50
2023-04-05T13:55:43.843Z,4.50
2023-04-05T13:58:26.103Z,4.60
2023-04-05T14:01:06.290Z,4.70
2023-04-05T14:03:43.107Z,4.80
2023-04-05T14:06:24.934Z,4.80
2023-04-05T14:09:13.413Z,4.80
2023-04-05T14:11:49.778Z,4.90
2023-04-05T14:14:38.003Z,5.00
2023-04-05T14:17:15.437Z,5.10
2023-04-05T14:20:06.534Z,5.10
2023-04-05T14:22:45.143Z,5.10
2023-04-05T14:25:31.498Z,5.10
2023-04-05T14:28:09.364Z,5.10
2023-04-05T14:30:48.209Z,5.10
2023-04-05T14:33:24.760Z,5.20
2023-04-05T14:36:03.930Z,5.10
2023-04-05T14:38:43.533Z,5.10
2023-04-05T14:41:22.337Z,5.10
2023-04-05T14:44:01.082Z,5.10
2023-04-05T14:46:39.190Z,5.00
2023-04-05T14:49:17.997Z,4.90
2023-04-05T14:51:59.124Z,4.80
2023-04-05T14:54:47.773Z,4.70
2023-04-05T14:57:23.846Z,4.70
2023-04-05T15:00:05.651Z,4.60
2023-04-05T15:02:44.518Z,4.60
2023-04-05T15:05:24.356Z,4.60
2023-04-05T15:08:04.416Z,4.60
2023-04-05T15:10:47.935Z,4.60
2023-04-05T15:13:25.830Z,4.60
2023-04-05T15:16:05.225Z,4.60
2023-04-05T15:18:43.364Z,4.60
2023-04-05T15:21:29.414Z,4.60
2023-04-05T15:24:11.617Z,4.60
2023-04-05T15:26:59.605Z,4.50
2023-04-05T15:29:43.785Z,4.50
2023-04-05T15:32:17.849Z,4.50
2023-04-05T15:34:53.816Z,4.50
2023-04-05T15:37:32.825Z,4.50
2023-04-05T15:40:10.654Z,4.50
2023-04-05T15:42:47.836Z,4.50
2023-04-05T15:45:27.945Z,4.40
2023-04-05T15:48:14.873Z,4.30
2023-04-05T15:50:51.746Z,4.30
2023-04-05T15:53:33.621Z,4.20
2023-04-05T15:56:08.778Z,4.20
2023-04-05T15:58:53.508Z,4.30
2023-04-05T16:01:37.781Z,4.30
2023-04-05T16:04:17.372Z,4.30
2023-04-05T16:07:05.279Z,4.30
2023-04-05T16:09:56.483Z,4.30
2023-04-05T16:12:42.889Z,4.30
2023-04-05T16:15:20.681Z,4.30
2023-04-05T16:17:57.706Z,4.30
2023-04-05T16:20:37.405Z,4.30
2023-04-05T16:23:18.923Z,4.30
2023-04-05T16:25:57.573Z,4.30
2023-04-05T16:28:33.749Z,4.30
2023-04-05T16:31:13.555Z,4.30
2023-04-05T16:33:56.688Z,4.30
2023-04-05T16:36:39.597Z,4.30
2023-04-05T16:39:16.386Z,4.30
2023-04-05T16:41:50.194Z,4.30
2023-04-05T16:44:36.589Z,4.30
2023-04-05T16:47:16.904Z,4.20
2023-04-05T16:49:52.384Z,4.20
2023-04-05T16:52:30.370Z,4.20
2023-04-05T16:55:08.463Z,4.20
2023-04-05T16:57:51.831Z,4.20
2023-04-05T17:00:28.541Z,4.20
2023-04-05T17:03:06.344Z,4.10
2023-04-05T17:05:46.821Z,4.20
2023-04-05T17:08:23.374Z,4.20
2023-04-05T17:10:59.660Z,4.20
2023-04-05T17:13:37.634Z,4.20
2023-04-05T17:16:11.894Z,4.20
2023-04-05T17:18:55.620Z,4.20
2023-04-05T17:21:31.607Z,4.10
2023-04-05T17:24:07.036Z,4.10
2023-04-05T17:26:43.810Z,4.10
2023-04-05T17:29:20.355Z,4.20
2023-04-05T17:32:02.889Z,4.10
2023-04-05T17:34:42.421Z,4.10
2023-04-05T17:37:22.609Z,4.10
2023-04-05T17:40:05.356Z,4.10
2023-04-05T17:42:49.789Z,4.10
2023-04-05T17:45:30.675Z,4.10
2023-04-05T17:48:11.655Z,4.20
2023-04-05T17:50:51.636Z,4.10
2023-04-05T17:53:30.083Z,4.00
2023-04-05T17:56:23.467Z,4.00
2023-04-05T17:59:09.458Z,4.10
2023-04-05T18:01:52.792Z,4.10
2023-04-05T18:04:34.391Z,4.00
2023-04-05T18:07:16.813Z,4.10
2023-04-05T18:10:01.710Z,4.10
2023-04-05T18:12:42.417Z,4.10
2023-04-05T18:15:19.791Z,4.00
2023-04-05T18:17:54.573Z,4.00
2023-04-05T18:20:28.201Z,4.10
2023-04-05T18:23:05.641Z,4.10
2023-04-05T18:25:46.006Z,4.10
2023-04-05T18:28:26.591Z,4.10
2023-04-05T18:31:20.685Z,4.00
2023-04-05T18:34:06.707Z,3.90
2023-04-05T18:36:49.527Z,3.80
2023-04-05T18:39:36.064Z,3.70
2023-04-05T18:42:10.056Z,3.70
2023-04-05T18:44:46.420Z,3.60
2023-04-05T18:47:22.452Z,3.60
2023-04-05T18:49:56.588Z,3.60
2023-04-05T18:52:38.610Z,3.60
2023-04-05T18:55:18.589Z,3.60
2023-04-05T18:57:55.266Z,3.50
2023-04-05T19:00:36.026Z,3.50
2023-04-05T19:03:15.920Z,3.50
2023-04-05T19:06:00.107Z,3.50
2023-04-05T19:08:38.687Z,3.50
2023-04-05T19:11:16.448Z,3.50
2023-04-05T19:13:54.391Z,3.50
2023-04-05T19:16:38.314Z,3.50
2023-04-05T19:19:16.570Z,3.50
2023-04-05T19:22:01.805Z,3.50
2023-04-05T19:24:37.996Z,3.50
2023-04-05T19:27:16.260Z,3.50
2023-04-05T19:29:56.236Z,3.50
2023-04-05T19:32:38.723Z,3.50
2023-04-05T19:35:15.042Z,3.50
2023-04-05T19:38:00.125Z,3.60
2023-04-05T19:40:46.257Z,3.60
2023-04-05T19:43:27.587Z,3.60
2023-04-05T19:46:07.365Z,3.60
2023-04-05T19:48:47.601Z,3.50
2023-04-05T19:51:29.797Z,3.60
2023-04-05T19:54:11.593Z,3.60
2023-04-05T19:56:52.080Z,3.60
2023-04-05T19:59:35.151Z,3.60
2023-04-05T20:02:24.204Z,3.60
2023-04-05T20:05:22.129Z,3.60
2023-04-05T20:08:08.419Z,3.50
2023-04-05T20:10:48.753Z,3.50
2023-04-05T20:13:24.397Z,3.50
2023-04-05T20:16:03.400Z,3.50
2023-04-05T20:18:54.382Z,3.40
2023-04-05T20:21:30.096Z,3.50
2023-04-05T20:24:13.133Z,3.50
2023-04-05T20:27:01.129Z,3.50
2023-04-05T20:29:37.836Z,3.50
2023-04-05T20:32:17.452Z,3.50
2023-04-05T20:35:04.203Z,3.50
2023-04-05T20:37:38.294Z,3.40
2023-04-05T20:40:29.572Z,3.40
2023-04-05T20:43:06.435Z,3.40
2023-04-05T20:45:44.449Z,3.40
2023-04-05T20:48:24.166Z,3.40
2023-04-05T20:51:10.205Z,3.30
2023-04-05T20:53:48.334Z,3.30
2023-04-05T20:56:29.722Z,3.40
2023-04-05T20:59:02.178Z,3.40
2023-04-05T21:01:41.662Z,3.40
2023-04-05T21:04:23.816Z,3.40
2023-04-05T21:07:04.855Z,3.40
2023-04-05T21:09:44.155Z,3.30
2023-04-05T21:12:32.298Z,3.30
2023-04-05T21:15:10.591Z,3.40
2023-04-05T21:18:01.742Z,3.30
2023-04-05T21:20:52.568Z,3.30
2023-04-05T21:23:34.246Z,3.30
2023-04-05T21:26:09.323Z,3.30
2023-04-05T21:28:45.923Z,3.30
2023-04-05T21:31:18.708Z,3.30
2023-04-05T21:33:57.412Z,3.30
2023-04-05T21:36:40.093Z,3.30
2023-04-05T21:39:20.648Z,3.30
2023-04-05T21:42:00.936Z,3.30
2023-04-05T21:44:34.661Z,3.30
2023-04-05T21:47:17.912Z,3.30
2023-04-05T21:49:56.335Z,3.30
2023-04-05T21:52:33.089Z,3.30
2023-04-05T21:55:14.018Z,3.30
2023-04-05T21:57:48.884Z,3.30
2023-04-05T22:00:30.458Z,3.30
2023-04-05T22:03:14.042Z,3.30
2023-04-05T22:05:51.717Z,3.30
2023-04-05T22:08:29.016Z,3.30
2023-04-05T22:11:11.453Z,3.20
2023-04-05T22:13:46.769Z,3.30
2023-04-05T22:16:26.055Z,3.20
2023-04-05T22:19:03.013Z,3.20
2023-04-05T22:21:40.879Z,3.20
2023-04-05T22:24:22.187Z,3.20
2023-04-05T22:27:03.886Z,3.10
2023-04-05T22:29:39.818Z,3.00
2023-04-05T22:32:16.344Z,3.00
2023-04-05T22:35:02.911Z,3.00
2023-04-05T22:37:39.101Z,2.90
2023-04-05T22:40:19.208Z,2.90
2023-04-05T22:43:04.315Z,2.80
2023-04-05T22:45:48.390Z,2.70
2023-04-05T22:48:28.492Z,2.70
2023-04-05T22:51:13.547Z,2.60
2023-04-05T22:53:50.343Z,2.50
2023-04-05T22:56:32.200Z,2.50
2023-04-05T22:59:11.091Z,2.40
2023-04-05T23:01:56.184Z,2.40
2023-04-05T23:04:37.726Z,2.30
2023-04-05T23:07:20.999Z,2.30
2023-04-05T23:09:58.762Z,2.20
2023-04-05T23:12:41.795Z,2.20
2023-04-05T23:15:20.762Z,2.10
2023-04-05T23:18:01.561Z,2.10
2023-04-05T23:20:40.332Z,2.10
2023-04-05T23:23:19.377Z,2.10
2023-04-05T23:25:54.900Z,2.00
2023-04-05T23:28:39.742Z,2.00
2023-04-05T23:31:14.885Z,2.00
2023-04-05T23:33:57.838Z,2.00
2023-04-05T23:36:43.084Z,1.90
2023-04-05T23:39:26.293Z,1.90
2023-04-05T23:42:03.182Z,1.90
2023-04-05T23:44:46.522Z,1.90
2023-04-05T23:47:24.323Z,1.90
2023-04-05T23:50:06.518Z,1.90
2023-04-05T23:52:53.696Z,1.90
2023-04-05T23:55:43.421Z,1.80
2023-04-05T23:58:18.147Z,1.90
